createdAt,value
2022-10-17T00:01:08.257Z,9.72
2022-10-17T00:06:12.936Z,9.69
2022-10-17T00:11:18.848Z,9.68
2022-10-17T00:16:29.019Z,9.70
2022-10-17T00:21:30.904Z,9.70
2022-10-17T00:26:32.614Z,9.70
2022-10-17T00:31:35.570Z,9.68
2022-10-17T00:36:37.575Z,9.51
2022-10-17T00:41:39.429Z,9.45
2022-10-17T00:46:40.944Z,9.44
2022-10-17T00:51:50.070Z,9.47
2022-10-17T00:56:52.455Z,9.46
2022-10-17T01:02:01.901Z,9.44
2022-10-17T01:07:03.358Z,9.50
2022-10-17T01:12:14.057Z,9.53
2022-10-17T01:17:31.658Z,9.57
2022-10-17T01:22:41.615Z,9.63
2022-10-17T01:27:42.952Z,9.67
2022-10-17T01:32:55.112Z,9.70
2022-10-17T01:38:10.265Z,9.74
2022-10-17T01:43:45.205Z,9.79
2022-10-17T01:48:46.753Z,9.79
2022-10-17T01:54:00.866Z,9.95
2022-10-17T01:59:15.039Z,10.03
2022-10-17T02:04:16.531Z,10.05
2022-10-17T02:09:20.860Z,10.08
2022-10-17T02:14:41.016Z,10.07
2022-10-17T02:20:16.302Z,10.04
2022-10-17T02:25:28.032Z,10.02
2022-10-17T02:30:41.835Z,10.00
2022-10-17T02:35:47.758Z,10.08
2022-10-17T02:40:51.500Z,10.17
2022-10-17T02:45:53.980Z,10.21
2022-10-17T02:51:25.820Z,10.25
2022-10-17T02:56:30.884Z,10.31
2022-10-17T03:01:32.624Z,10.30
2022-10-17T03:06:34.126Z,10.28
2022-10-17T03:11:35.532Z,10.34
2022-10-17T03:16:36.991Z,10.26
2022-10-17T03:21:38.474Z,10.25
2022-10-17T03:26:39.968Z,10.21
2022-10-17T03:31:41.448Z,10.21
2022-10-17T03:36:43.544Z,10.22
2022-10-17T03:41:44.952Z,10.19
2022-10-17T03:46:46.512Z,10.18
2022-10-17T03:51:47.957Z,10.26
2022-10-17T03:56:49.509Z,10.35
2022-10-17T04:01:50.980Z,10.41
2022-10-17T04:06:52.395Z,10.44
2022-10-17T04:11:53.818Z,10.54
2022-10-17T04:16:55.324Z,10.51
2022-10-17T04:21:56.770Z,10.56
2022-10-17T04:26:58.269Z,10.58
2022-10-17T04:31:59.746Z,10.74
2022-10-17T04:37:01.179Z,10.82
2022-10-17T04:42:02.631Z,10.84
2022-10-17T04:47:04.593Z,10.90
2022-10-17T04:52:06.033Z,11.02
2022-10-17T04:57:07.503Z,11.03
2022-10-17T05:02:09.019Z,11.07
2022-10-17T05:07:10.599Z,11.16
2022-10-17T05:12:12.061Z,11.23
2022-10-17T05:17:13.466Z,11.35
2022-10-17T05:22:15.113Z,11.39
2022-10-17T05:27:16.561Z,11.37
2022-10-17T05:32:18.013Z,11.32
2022-10-17T05:37:19.444Z,11.18
2022-10-17T05:42:21.173Z,11.08
2022-10-17T05:47:22.721Z,11.09
2022-10-17T05:52:24.164Z,11.14
2022-10-17T05:57:26.559Z,11.10
2022-10-17T06:02:28.342Z,11.04
2022-10-17T06:07:30.156Z,11.07
2022-10-17T06:12:31.836Z,11.09
2022-10-17T06:17:33.514Z,11.07
2022-10-17T06:22:34.971Z,11.17
2022-10-17T06:27:36.430Z,11.18
2022-10-17T06:32:37.848Z,11.40
2022-10-17T06:37:39.577Z,11.59
2022-10-17T06:42:41.736Z,11.67
2022-10-17T06:47:43.225Z,11.89
2022-10-17T06:52:44.648Z,11.98
2022-10-17T06:57:46.120Z,12.14
2022-10-17T07:02:47.537Z,12.17
2022-10-17T07:07:51.749Z,12.19
2022-10-17T07:12:53.284Z,12.29
2022-10-17T07:17:54.708Z,12.46
2022-10-17T07:22:56.219Z,12.72
2022-10-17T07:27:57.707Z,12.77
2022-10-17T07:32:59.132Z,12.93
2022-10-17T07:38:00.558Z,13.13
2022-10-17T07:43:01.999Z,13.37
2022-10-17T07:48:03.605Z,13.55
2022-10-17T07:53:05.057Z,13.76
2022-10-17T07:58:08.941Z,13.86
2022-10-17T08:03:11.439Z,14.03
2022-10-17T08:08:12.960Z,14.07
2022-10-17T08:13:14.383Z,14.09
2022-10-17T08:18:15.989Z,14.17
2022-10-17T08:23:17.447Z,14.11
2022-10-17T08:28:18.868Z,14.04
2022-10-17T08:33:20.318Z,14.12
2022-10-17T08:38:23.286Z,14.12
2022-10-17T08:43:37.735Z,14.20
2022-10-17T08:48:46.591Z,14.29
2022-10-17T08:53:53.787Z,14.38
2022-10-17T08:58:55.298Z,14.49
2022-10-17T09:04:16.092Z,14.64
2022-10-17T09:09:28.004Z,14.92
2022-10-17T09:15:02.998Z,15.37
2022-10-17T09:20:19.765Z,16.00
2022-10-17T09:25:21.763Z,16.39
2022-10-17T09:30:46.192Z,17.56
2022-10-17T09:35:49.945Z,17.78
2022-10-17T09:40:57.215Z,17.70
2022-10-17T09:46:15.970Z,18.07
2022-10-17T09:51:25.762Z,18.83
2022-10-17T09:56:27.775Z,19.01
2022-10-17T10:01:31.426Z,19.01
2022-10-17T10:06:32.928Z,20.08
2022-10-17T10:11:49.871Z,22.02
2022-10-17T10:16:53.710Z,22.71
2022-10-17T10:21:58.691Z,22.34
2022-10-17T10:27:03.173Z,21.74
2022-10-17T10:32:16.385Z,21.28
2022-10-17T10:37:30.757Z,20.78
2022-10-17T10:42:39.470Z,21.41
2022-10-17T10:47:51.704Z,21.66
2022-10-17T10:53:34.211Z,23.19
2022-10-17T10:58:48.541Z,22.79
2022-10-17T11:04:04.942Z,21.46
2022-10-17T11:09:32.974Z,20.51
2022-10-17T11:14:47.935Z,19.72
2022-10-17T11:20:15.201Z,19.25
2022-10-17T11:25:40.281Z,19.00
2022-10-17T11:31:13.226Z,18.88
2022-10-17T11:36:17.984Z,18.75
2022-10-17T11:41:29.825Z,18.59
2022-10-17T11:46:36.056Z,18.51
2022-10-17T11:52:04.239Z,18.31
2022-10-17T11:57:19.872Z,18.48
2022-10-17T12:02:32.999Z,18.66
2022-10-17T12:07:56.354Z,18.87
2022-10-17T12:12:57.906Z,19.01
2022-10-17T12:18:04.051Z,19.14
2022-10-17T12:23:11.600Z,18.78
2022-10-17T12:28:16.812Z,18.81
2022-10-17T12:33:27.828Z,18.62
2022-10-17T12:38:29.321Z,18.57
2022-10-17T12:43:30.781Z,18.52
2022-10-17T12:48:38.475Z,18.54
2022-10-17T12:53:43.506Z,18.35
2022-10-17T12:58:48.673Z,18.34
2022-10-17T13:03:52.482Z,18.39
2022-10-17T13:09:20.744Z,18.00
2022-10-17T13:14:24.489Z,17.80
2022-10-17T13:19:30.169Z,17.65
2022-10-17T13:24:32.948Z,17.57
2022-10-17T13:29:34.577Z,17.39
2022-10-17T13:34:36.146Z,17.30
2022-10-17T13:39:55.248Z,17.22
2022-10-17T13:44:59.118Z,17.21
2022-10-17T13:50:00.991Z,17.36
2022-10-17T13:55:14.208Z,17.41
2022-10-17T14:00:28.221Z,17.32
2022-10-17T14:05:29.742Z,17.24
2022-10-17T14:10:32.866Z,17.04
2022-10-17T14:15:36.629Z,17.07
2022-10-17T14:21:19.732Z,16.95
2022-10-17T14:26:12.314Z,16.81
2022-10-17T14:31:25.414Z,16.81
2022-10-17T14:36:51.262Z,16.65
2022-10-17T14:41:53.795Z,16.63
2022-10-17T14:47:38.190Z,16.54
2022-10-17T14:52:31.541Z,16.50
2022-10-17T14:57:33.214Z,16.37
2022-10-17T15:02:34.869Z,16.26
2022-10-17T15:07:36.298Z,16.16
2022-10-17T15:12:37.713Z,16.06
2022-10-17T15:17:39.339Z,15.99
2022-10-17T15:22:40.808Z,15.76
2022-10-17T15:27:42.300Z,15.68
2022-10-17T15:32:43.773Z,15.52
2022-10-17T15:37:46.776Z,15.55
2022-10-17T15:42:48.393Z,15.46
2022-10-17T15:47:52.792Z,15.51
2022-10-17T15:52:54.244Z,15.42
2022-10-17T15:57:55.824Z,15.31
2022-10-17T16:02:57.325Z,15.33
2022-10-17T16:07:58.759Z,15.36
2022-10-17T16:13:00.175Z,15.27
2022-10-17T16:18:04.285Z,15.31
2022-10-17T16:23:08.419Z,15.23
2022-10-17T16:28:11.784Z,15.22
2022-10-17T16:33:13.377Z,15.24
2022-10-17T16:38:16.064Z,15.28
2022-10-17T16:43:17.538Z,15.18
2022-10-17T16:48:26.162Z,15.20
2022-10-17T16:53:30.934Z,15.17
2022-10-17T16:58:32.402Z,15.26
2022-10-17T17:03:37.967Z,15.11
2022-10-17T17:08:40.281Z,15.10
2022-10-17T17:13:41.772Z,15.15
2022-10-17T17:18:43.445Z,15.15
2022-10-17T17:23:44.961Z,15.07
2022-10-17T17:28:47.335Z,15.00
2022-10-17T17:33:49.191Z,15.13
2022-10-17T17:38:53.435Z,14.99
2022-10-17T17:43:55.719Z,15.00
2022-10-17T17:48:57.190Z,15.00
2022-10-17T17:53:58.669Z,14.98
2022-10-17T17:59:02.359Z,14.93
2022-10-17T18:04:05.750Z,14.95
2022-10-17T18:09:07.980Z,14.90
2022-10-17T18:14:12.569Z,14.84
2022-10-17T18:19:14.068Z,14.78
2022-10-17T18:24:15.652Z,14.61
2022-10-17T18:29:17.206Z,14.67
2022-10-17T18:34:18.660Z,14.62
2022-10-17T18:39:20.516Z,14.62
2022-10-17T18:44:21.947Z,14.57
2022-10-17T18:49:23.493Z,14.41
2022-10-17T18:54:24.904Z,14.32
2022-10-17T18:59:26.433Z,14.25
2022-10-17T19:04:27.950Z,14.10
2022-10-17T19:09:29.574Z,14.18
2022-10-17T19:14:31.345Z,14.12
2022-10-17T19:19:33.342Z,14.09
2022-10-17T19:24:35.132Z,14.07
2022-10-17T19:29:36.547Z,14.02
2022-10-17T19:34:38.201Z,14.00
2022-10-17T19:39:39.692Z,14.05
2022-10-17T19:44:41.095Z,13.95
2022-10-17T19:49:46.485Z,13.93
2022-10-17T19:54:50.531Z,14.02
2022-10-17T19:59:53.742Z,14.16
2022-10-17T20:05:13.932Z,14.15
2022-10-17T20:10:18.922Z,14.16
2022-10-17T20:15:20.421Z,14.22
2022-10-17T20:20:22.117Z,14.23
2022-10-17T20:25:23.579Z,14.31
2022-10-17T20:30:25.115Z,14.31
2022-10-17T20:35:26.580Z,14.29
2022-10-17T20:40:35.847Z,14.37
2022-10-17T20:45:50.714Z,14.36
2022-10-17T20:50:53.733Z,14.36
2022-10-17T20:56:17.050Z,14.30
2022-10-17T21:01:18.721Z,14.40
2022-10-17T21:06:21.073Z,14.43
2022-10-17T21:11:24.875Z,14.39
2022-10-17T21:16:27.535Z,14.40
2022-10-17T21:21:40.893Z,14.36
2022-10-17T21:26:43.897Z,14.35
2022-10-17T21:31:45.416Z,14.41
2022-10-17T21:36:48.070Z,14.30
2022-10-17T21:41:49.504Z,14.32
2022-10-17T21:46:51.982Z,14.27
2022-10-17T21:51:53.656Z,14.30
2022-10-17T21:56:55.059Z,14.23
2022-10-17T22:01:56.498Z,14.18
2022-10-17T22:06:57.989Z,14.16
2022-10-17T22:11:59.462Z,14.16
2022-10-17T22:17:01.568Z,14.17
2022-10-17T22:22:02.996Z,14.13
2022-10-17T22:27:04.708Z,14.14
2022-10-17T22:32:06.156Z,14.07
2022-10-17T22:37:07.624Z,14.13
2022-10-17T22:42:09.140Z,14.01
2022-10-17T22:47:10.607Z,13.94
2022-10-17T22:52:12.112Z,13.92
2022-10-17T22:57:13.541Z,13.80
2022-10-17T23:02:14.959Z,13.83
2022-10-17T23:07:16.417Z,13.82
2022-10-17T23:12:17.977Z,13.84
2022-10-17T23:17:19.373Z,13.93
2022-10-17T23:22:20.783Z,13.89
2022-10-17T23:27:22.249Z,13.89
2022-10-17T23:32:23.708Z,13.78
2022-10-17T23:37:25.161Z,13.71
2022-10-17T23:42:27.116Z,13.69
2022-10-17T23:47:28.865Z,13.68
2022-10-17T23:52:31.011Z,13.68
2022-10-17T23:57:32.824Z,13.55
